createdAt,value
2019-02-28T00:01:15.416Z,5.40
2019-02-28T00:03:45.510Z,6.80
2019-02-28T00:06:15.247Z,8.58
2019-02-28T00:08:44.899Z,7.53
2019-02-28T00:11:14.562Z,7.42
2019-02-28T00:13:44.218Z,7.47
2019-02-28T00:16:15.109Z,9.60
2019-02-28T00:18:49.653Z,6.08
2019-02-28T00:21:16.258Z,6.95
2019-02-28T00:23:46.247Z,8.83
2019-02-28T00:26:15.918Z,5.93
2019-02-28T00:28:45.567Z,9.53
2019-02-28T00:31:15.454Z,10.20
2019-02-28T00:33:45.417Z,6.78
2019-02-28T00:36:16.329Z,8.73
2019-02-28T00:38:46.531Z,5.17
2019-02-28T00:41:16.732Z,6.57
2019-02-28T00:43:46.883Z,9.97
2019-02-28T00:46:16.537Z,7.75
2019-02-28T00:48:46.207Z,7.95
2019-02-28T00:51:15.869Z,6.97
2019-02-28T00:53:45.545Z,6.60
2019-02-28T00:56:17.587Z,6.03
2019-02-28T00:58:47.175Z,6.73
2019-02-28T01:01:16.957Z,5.87
2019-02-28T01:03:46.831Z,8.38
2019-02-28T01:06:16.505Z,7.30
2019-02-28T01:08:46.166Z,9.35
2019-02-28T01:11:15.897Z,8.17
2019-02-28T01:13:45.545Z,9.20
2019-02-28T01:16:16.062Z,8.07
2019-02-28T01:18:47.515Z,5.90
2019-02-28T01:21:17.172Z,7.40
2019-02-28T01:23:47.065Z,7.63
2019-02-28T01:26:16.754Z,7.67
2019-02-28T01:28:46.397Z,7.00
2019-02-28T01:31:16.056Z,7.70
2019-02-28T01:33:46.178Z,5.63
2019-02-28T01:36:16.336Z,5.30
2019-02-28T01:38:46.069Z,8.47
2019-02-28T01:41:15.771Z,6.47
2019-02-28T01:43:45.453Z,8.70
2019-02-28T01:46:17.268Z,6.10
2019-02-28T01:48:46.457Z,6.55
2019-02-28T01:51:16.649Z,7.60
2019-02-28T01:53:46.310Z,6.53
2019-02-28T01:56:16.711Z,6.83
2019-02-28T01:58:47.670Z,6.15
2019-02-28T02:01:19.682Z,6.37
2019-02-28T02:03:49.349Z,6.03
2019-02-28T02:06:18.995Z,6.50
2019-02-28T02:08:49.061Z,6.22
2019-02-28T02:11:19.079Z,5.22
2019-02-28T02:13:48.754Z,6.43
2019-02-28T02:16:18.476Z,8.83
2019-02-28T02:18:48.243Z,6.33
2019-02-28T02:21:17.893Z,6.27
2019-02-28T02:23:49.667Z,5.73
2019-02-28T02:26:19.001Z,6.50
2019-02-28T02:28:48.681Z,6.47
2019-02-28T02:31:18.318Z,7.87
2019-02-28T02:33:52.440Z,7.50
2019-02-28T02:36:19.376Z,9.37
2019-02-28T02:38:49.031Z,7.00
2019-02-28T02:41:18.769Z,7.85
2019-02-28T02:43:48.414Z,5.93
2019-02-28T02:46:20.169Z,8.70
2019-02-28T02:48:49.456Z,4.83
2019-02-28T02:51:19.106Z,8.23
2019-02-28T02:53:48.979Z,8.40
2019-02-28T02:56:18.628Z,8.70
2019-02-28T02:58:49.302Z,8.03
2019-02-28T03:01:23.039Z,6.80
2019-02-28T03:03:51.549Z,6.70
2019-02-28T03:06:21.200Z,8.03
2019-02-28T03:08:51.186Z,6.10
2019-02-28T03:11:24.856Z,6.37
2019-02-28T03:13:52.585Z,11.65
2019-02-28T03:16:23.356Z,8.13
2019-02-28T03:18:56.482Z,7.47
2019-02-28T03:21:24.346Z,12.53
2019-02-28T03:23:54.008Z,7.47
2019-02-28T03:26:23.765Z,8.73
2019-02-28T03:28:53.456Z,6.77
2019-02-28T03:31:23.106Z,6.05
2019-02-28T03:33:52.796Z,8.43
2019-02-28T03:36:22.468Z,10.63
2019-02-28T03:38:52.128Z,9.30
2019-02-28T03:41:21.802Z,11.57
2019-02-28T03:43:51.477Z,9.80
2019-02-28T03:46:21.185Z,9.63
2019-02-28T03:48:50.963Z,10.67
2019-02-28T03:51:20.653Z,8.98
2019-02-28T03:53:55.577Z,10.10
2019-02-28T03:56:22.189Z,8.83
2019-02-28T03:58:51.863Z,11.33
2019-02-28T04:01:22.503Z,9.93
2019-02-28T04:03:52.948Z,10.08
2019-02-28T04:06:22.613Z,11.08
2019-02-28T04:08:52.293Z,13.17
2019-02-28T04:11:21.994Z,12.33
2019-02-28T04:13:52.582Z,10.83
2019-02-28T04:16:23.024Z,9.13
2019-02-28T04:18:52.693Z,9.08
2019-02-28T04:21:22.512Z,8.40
2019-02-28T04:23:52.202Z,10.90
2019-02-28T04:26:21.884Z,14.23
2019-02-28T04:28:54.672Z,11.78
2019-02-28T04:31:23.162Z,11.55
2019-02-28T04:33:52.857Z,11.70
2019-02-28T04:36:22.522Z,12.65
2019-02-28T04:38:52.536Z,9.67
2019-02-28T04:41:22.150Z,14.83
2019-02-28T04:43:51.827Z,14.87
2019-02-28T04:46:21.590Z,10.60
2019-02-28T04:48:51.340Z,10.28
2019-02-28T04:51:21.053Z,8.25
2019-02-28T04:53:53.005Z,11.80
2019-02-28T04:56:22.150Z,12.37
2019-02-28T04:58:51.818Z,11.68
2019-02-28T05:01:21.763Z,11.65
2019-02-28T05:03:52.770Z,10.83
2019-02-28T05:06:22.503Z,12.93
2019-02-28T05:08:52.270Z,10.37
2019-02-28T05:11:22.049Z,11.12
2019-02-28T05:13:51.724Z,11.07
2019-02-28T05:16:21.383Z,6.50
2019-02-28T05:18:51.301Z,12.58
2019-02-28T05:21:20.972Z,12.40
2019-02-28T05:23:50.881Z,6.70
2019-02-28T05:26:20.547Z,11.67
2019-02-28T05:28:51.980Z,12.60
2019-02-28T05:31:24.124Z,7.05
2019-02-28T05:33:53.631Z,10.80
2019-02-28T05:36:23.291Z,12.57
2019-02-28T05:38:53.598Z,9.03
2019-02-28T05:41:24.632Z,11.37
2019-02-28T05:43:55.066Z,9.03
2019-02-28T05:46:24.721Z,9.50
2019-02-28T05:48:54.397Z,13.10
2019-02-28T05:51:24.869Z,11.28
2019-02-28T05:53:55.326Z,11.12
2019-02-28T05:56:25.330Z,4.23
2019-02-28T05:58:55.275Z,10.77
2019-02-28T06:01:24.944Z,14.90
2019-02-28T06:03:54.611Z,10.72
2019-02-28T06:06:24.884Z,12.00
2019-02-28T06:08:54.564Z,11.35
2019-02-28T06:11:24.219Z,12.67
2019-02-28T06:13:53.904Z,10.40
2019-02-28T06:16:23.574Z,12.15
2019-02-28T06:18:53.534Z,16.40
2019-02-28T06:21:24.295Z,15.32
2019-02-28T06:23:54.314Z,11.75
2019-02-28T06:26:24.605Z,12.93
2019-02-28T06:28:54.298Z,14.97
2019-02-28T06:31:23.971Z,14.47
2019-02-28T06:33:54.680Z,13.70
2019-02-28T06:36:25.704Z,12.90
2019-02-28T06:38:55.928Z,18.52
2019-02-28T06:41:26.007Z,10.23
2019-02-28T06:43:55.684Z,17.85
2019-02-28T06:46:26.359Z,15.30
2019-02-28T06:49:01.134Z,7.87
2019-02-28T06:51:28.454Z,22.17
2019-02-28T06:53:58.432Z,18.80
2019-02-28T06:56:28.130Z,20.37
2019-02-28T06:58:57.789Z,16.13
2019-02-28T07:01:29.530Z,16.13
2019-02-28T07:03:58.856Z,22.77
2019-02-28T07:06:28.515Z,17.23
2019-02-28T07:09:02.165Z,14.80
2019-02-28T07:11:29.596Z,17.80
2019-02-28T07:13:59.567Z,23.90
2019-02-28T07:16:30.752Z,25.93
2019-02-28T07:19:01.039Z,17.13
2019-02-28T07:21:30.720Z,23.63
2019-02-28T07:24:02.387Z,19.55
2019-02-28T07:26:31.909Z,29.43
2019-02-28T07:29:02.066Z,27.73
2019-02-28T07:31:31.818Z,21.47
2019-02-28T07:34:01.779Z,27.85
2019-02-28T07:36:31.472Z,33.60
2019-02-28T07:39:04.487Z,17.67
2019-02-28T07:41:34.501Z,31.37
2019-02-28T07:44:04.470Z,26.80
2019-02-28T07:46:34.238Z,19.07
2019-02-28T07:49:03.942Z,10.23
2019-02-28T07:51:33.720Z,28.32
2019-02-28T07:54:03.392Z,31.12
2019-02-28T07:56:33.083Z,34.13
2019-02-28T07:59:05.341Z,39.10
2019-02-28T08:01:34.148Z,28.67
2019-02-28T08:04:03.969Z,22.77
2019-02-28T08:06:36.348Z,31.23
2019-02-28T08:09:10.940Z,17.03
2019-02-28T08:11:40.967Z,34.53
2019-02-28T08:14:12.130Z,25.53
2019-02-28T08:16:43.091Z,33.60
2019-02-28T08:19:13.245Z,41.13
2019-02-28T08:21:46.962Z,17.70
2019-02-28T08:24:14.680Z,34.27
2019-02-28T08:26:44.383Z,34.27
2019-02-28T08:29:14.399Z,10.98
2019-02-28T08:31:44.664Z,38.90
2019-02-28T08:34:14.340Z,35.33
2019-02-28T08:36:47.041Z,20.57
2019-02-28T08:39:17.548Z,15.83
2019-02-28T08:41:49.548Z,41.27
2019-02-28T08:44:23.872Z,36.03
2019-02-28T08:46:52.064Z,44.83
2019-02-28T08:49:22.018Z,40.90
2019-02-28T08:51:51.807Z,21.73
2019-02-28T08:54:26.300Z,26.70
2019-02-28T08:56:53.034Z,42.80
2019-02-28T08:59:23.028Z,36.37
2019-02-28T09:01:53.215Z,37.42
2019-02-28T09:04:23.555Z,23.00
2019-02-28T09:06:53.398Z,16.80
2019-02-28T09:09:23.092Z,43.95
2019-02-28T09:11:57.887Z,31.60
2019-02-28T09:14:24.271Z,43.70
2019-02-28T09:16:54.007Z,40.57
2019-02-28T09:19:23.667Z,28.83
2019-02-28T09:21:53.776Z,41.83
2019-02-28T09:24:23.613Z,39.73
2019-02-28T09:26:53.575Z,43.13
2019-02-28T09:29:23.320Z,18.93
2019-02-28T09:31:53.072Z,31.42
2019-02-28T09:34:22.775Z,37.93
2019-02-28T09:36:56.611Z,30.85
2019-02-28T09:39:23.887Z,14.07
2019-02-28T09:41:53.693Z,33.23
2019-02-28T09:44:23.418Z,40.23
2019-02-28T09:46:53.132Z,39.90
2019-02-28T09:49:22.802Z,19.53
2019-02-28T09:51:52.833Z,37.45
2019-02-28T09:54:24.362Z,31.05
2019-02-28T09:56:54.208Z,27.90
2019-02-28T09:59:23.881Z,31.30
2019-02-28T10:02:01.114Z,23.47
2019-02-28T10:04:27.414Z,33.97
2019-02-28T10:06:56.940Z,35.23
2019-02-28T10:09:26.668Z,37.83
2019-02-28T10:11:56.360Z,27.45
2019-02-28T10:14:28.991Z,20.23
2019-02-28T10:16:59.005Z,19.07
2019-02-28T10:19:28.912Z,20.37
2019-02-28T10:21:58.590Z,32.30
2019-02-28T10:24:28.533Z,26.90
2019-02-28T10:26:59.741Z,33.38
2019-02-28T10:29:29.451Z,27.10
2019-02-28T10:31:59.169Z,16.15
2019-02-28T10:34:29.967Z,33.47
2019-02-28T10:37:00.274Z,29.20
2019-02-28T10:39:29.985Z,38.63
2019-02-28T10:42:01.548Z,34.63
2019-02-28T10:44:31.620Z,29.57
2019-02-28T10:47:01.391Z,36.10
2019-02-28T10:49:31.264Z,39.70
2019-02-28T10:52:01.144Z,31.60
2019-02-28T10:54:30.861Z,42.33
2019-02-28T10:57:03.040Z,40.30
2019-02-28T10:59:32.214Z,40.17
2019-02-28T11:02:02.004Z,19.50
2019-02-28T11:04:31.685Z,25.77
2019-02-28T11:07:02.265Z,14.97
2019-02-28T11:09:32.821Z,33.83
2019-02-28T11:12:02.847Z,30.55
2019-02-28T11:14:35.459Z,36.40
2019-02-28T11:17:04.076Z,38.67
2019-02-28T11:19:33.922Z,30.93
2019-02-28T11:22:04.948Z,36.03
2019-02-28T11:24:35.105Z,28.92
2019-02-28T11:27:07.283Z,41.55
2019-02-28T11:29:37.026Z,37.97
2019-02-28T11:32:06.971Z,40.67
2019-02-28T11:34:36.675Z,39.70
2019-02-28T11:37:08.891Z,30.27
2019-02-28T11:39:39.534Z,30.53
2019-02-28T11:42:09.845Z,37.53
2019-02-28T11:44:39.648Z,35.63
2019-02-28T11:47:11.156Z,32.37
2019-02-28T11:49:42.101Z,35.80
2019-02-28T11:52:11.866Z,41.20
2019-02-28T11:54:45.174Z,39.73
2019-02-28T11:57:14.444Z,38.85
2019-02-28T11:59:44.290Z,36.50
2019-02-28T12:02:14.062Z,37.17
2019-02-28T12:04:43.737Z,38.87
2019-02-28T12:07:13.744Z,40.10
2019-02-28T12:09:43.423Z,40.07
2019-02-28T12:12:13.262Z,38.60
2019-02-28T12:14:42.958Z,39.50
2019-02-28T12:17:12.654Z,27.73
2019-02-28T12:19:43.924Z,12.70
2019-02-28T12:22:13.944Z,35.37
2019-02-28T12:24:43.713Z,40.90
2019-02-28T12:27:13.669Z,42.30
2019-02-28T12:29:45.655Z,28.52
2019-02-28T12:32:15.344Z,26.27
2019-02-28T12:34:45.026Z,42.27
2019-02-28T12:37:14.794Z,38.98
2019-02-28T12:39:44.560Z,48.00
2019-02-28T12:42:14.272Z,39.63
2019-02-28T12:44:46.247Z,33.90
2019-02-28T12:47:15.340Z,39.83
2019-02-28T12:49:45.450Z,38.63
2019-02-28T12:52:15.560Z,40.43
2019-02-28T12:54:45.456Z,22.43
2019-02-28T12:57:15.493Z,42.05
2019-02-28T12:59:46.110Z,35.13
2019-02-28T13:02:16.658Z,43.07
2019-02-28T13:04:46.675Z,29.13
2019-02-28T13:07:16.610Z,41.33
2019-02-28T13:09:48.259Z,34.13
2019-02-28T13:12:17.877Z,45.50
2019-02-28T13:14:47.965Z,39.00
2019-02-28T13:17:17.910Z,40.87
2019-02-28T13:19:47.669Z,43.83
2019-02-28T13:22:18.815Z,39.35
2019-02-28T13:24:48.935Z,38.33
2019-02-28T13:27:18.642Z,48.33
2019-02-28T13:29:48.319Z,39.88
2019-02-28T13:32:18.008Z,40.83
2019-02-28T13:34:47.760Z,45.63
2019-02-28T13:37:17.442Z,44.43
2019-02-28T13:39:47.403Z,45.07
2019-02-28T13:42:17.118Z,20.07
2019-02-28T13:44:46.865Z,48.80
2019-02-28T13:47:16.935Z,43.45
2019-02-28T13:49:49.799Z,45.15
2019-02-28T13:52:20.298Z,45.40
2019-02-28T13:54:50.006Z,50.07
2019-02-28T13:57:19.768Z,43.57
2019-02-28T13:59:49.448Z,43.38
2019-02-28T14:02:19.198Z,51.33
2019-02-28T14:04:48.908Z,52.27
2019-02-28T14:07:18.923Z,52.25
2019-02-28T14:09:48.785Z,47.45
2019-02-28T14:12:20.763Z,47.80
2019-02-28T14:14:50.001Z,43.53
2019-02-28T14:17:19.781Z,52.27
2019-02-28T14:19:52.701Z,43.10
2019-02-28T14:22:21.132Z,49.33
2019-02-28T14:24:50.798Z,52.67
2019-02-28T14:27:21.592Z,58.83
2019-02-28T14:29:51.972Z,60.10
2019-02-28T14:32:21.646Z,35.40
2019-02-28T14:34:51.629Z,47.90
2019-02-28T14:37:21.510Z,45.95
2019-02-28T14:39:51.577Z,49.90
2019-02-28T14:42:22.334Z,45.03
2019-02-28T14:44:52.120Z,52.97
2019-02-28T14:47:24.894Z,46.30
2019-02-28T14:49:55.694Z,48.78
2019-02-28T14:52:25.962Z,48.53
2019-02-28T14:54:57.083Z,43.27
2019-02-28T14:57:27.440Z,30.70
2019-02-28T14:59:57.126Z,52.23
2019-02-28T15:02:28.768Z,52.50
2019-02-28T15:04:58.597Z,55.10
2019-02-28T15:07:28.270Z,30.73
2019-02-28T15:09:58.909Z,51.30
2019-02-28T15:12:30.110Z,54.50
2019-02-28T15:14:59.817Z,52.75
2019-02-28T15:17:29.492Z,53.80
2019-02-28T15:19:59.193Z,50.73
2019-02-28T15:22:28.906Z,46.02
2019-02-28T15:24:58.837Z,53.33
2019-02-28T15:27:29.044Z,53.40
2019-02-28T15:29:59.646Z,48.47
2019-02-28T15:32:29.432Z,50.23
2019-02-28T15:35:01.440Z,50.53
2019-02-28T15:37:33.699Z,50.90
2019-02-28T15:40:02.577Z,53.00
2019-02-28T15:42:32.430Z,51.10
2019-02-28T15:45:04.129Z,54.67
2019-02-28T15:47:34.194Z,48.38
2019-02-28T15:50:04.663Z,53.70
2019-02-28T15:52:36.652Z,54.37
2019-02-28T15:55:06.948Z,52.08
2019-02-28T15:57:37.128Z,58.00
2019-02-28T16:00:09.244Z,49.13
2019-02-28T16:02:42.165Z,56.90
2019-02-28T16:05:10.755Z,46.63
2019-02-28T16:07:40.613Z,52.13
2019-02-28T16:10:12.532Z,53.83
2019-02-28T16:12:42.855Z,58.87
2019-02-28T16:15:14.201Z,51.80
2019-02-28T16:17:44.236Z,53.27
2019-02-28T16:20:14.360Z,55.30
2019-02-28T16:22:45.168Z,51.15
2019-02-28T16:25:18.025Z,40.73
2019-02-28T16:27:48.168Z,53.60
2019-02-28T16:30:18.552Z,51.30
2019-02-28T16:32:49.087Z,52.88
2019-02-28T16:35:20.232Z,43.10
2019-02-28T16:37:50.572Z,66.15
2019-02-28T16:40:25.961Z,55.10
2019-02-28T16:42:52.282Z,49.50
2019-02-28T16:45:42.499Z,50.80
2019-02-28T16:48:12.474Z,50.20
2019-02-28T16:50:42.269Z,59.33
2019-02-28T16:53:16.186Z,49.47
2019-02-28T16:55:43.577Z,52.13
2019-02-28T16:58:13.279Z,51.68
2019-02-28T17:00:46.129Z,52.47
2019-02-28T17:03:15.935Z,52.90
2019-02-28T17:05:45.812Z,50.30
2019-02-28T17:08:18.653Z,53.17
2019-02-28T17:10:47.458Z,54.15
2019-02-28T17:13:22.560Z,58.57
2019-02-28T17:16:17.249Z,59.33
2019-02-28T17:18:47.161Z,59.40
2019-02-28T17:21:18.084Z,65.90
2019-02-28T17:23:47.831Z,61.63
2019-02-28T17:26:19.184Z,71.97
2019-02-28T17:28:56.608Z,59.07
2019-02-28T17:31:35.508Z,60.25
2019-02-28T17:34:05.550Z,65.92
2019-02-28T17:36:35.702Z,57.77
2019-02-28T17:39:07.302Z,60.73
2019-02-28T17:41:38.663Z,64.25
2019-02-28T17:44:48.537Z,67.73
2019-02-28T17:47:55.580Z,58.55
2019-02-28T17:50:57.260Z,60.85
2019-02-28T17:53:45.835Z,62.17
2019-02-28T17:56:44.435Z,61.68
2019-02-28T17:59:49.214Z,66.30
2019-02-28T18:02:56.146Z,59.47
2019-02-28T18:06:18.128Z,65.67
2019-02-28T18:09:28.435Z,67.47
2019-02-28T18:12:29.332Z,67.20
2019-02-28T18:15:17.212Z,60.50
2019-02-28T18:18:21.436Z,67.10
2019-02-28T18:21:28.944Z,69.62
2019-02-28T18:24:09.885Z,71.33
2019-02-28T18:26:57.627Z,65.32
2019-02-28T18:30:09.092Z,78.27
2019-02-28T18:32:38.203Z,69.15
2019-02-28T18:35:08.257Z,73.40
2019-02-28T18:37:38.084Z,72.05
2019-02-28T18:40:08.276Z,75.33
2019-02-28T18:42:38.790Z,70.08
2019-02-28T18:45:09.206Z,70.70
2019-02-28T18:47:40.800Z,72.00
2019-02-28T18:50:10.619Z,72.47
2019-02-28T18:52:40.396Z,68.00
2019-02-28T18:55:10.236Z,76.80
2019-02-28T18:57:40.257Z,71.70
2019-02-28T19:00:13.009Z,74.40
2019-02-28T19:02:43.329Z,63.73
2019-02-28T19:05:13.007Z,76.00
2019-02-28T19:07:43.769Z,73.85
2019-02-28T19:10:13.606Z,72.07
2019-02-28T19:12:43.581Z,72.37
2019-02-28T19:15:13.585Z,71.07
2019-02-28T19:17:44.988Z,73.30
2019-02-28T19:20:14.941Z,74.50
2019-02-28T19:22:44.603Z,72.63
2019-02-28T19:25:14.546Z,65.47
2019-02-28T19:27:44.286Z,69.20
2019-02-28T19:30:14.071Z,73.93
2019-02-28T19:32:43.915Z,71.47
2019-02-28T19:35:13.783Z,74.82
2019-02-28T19:37:43.789Z,77.00
2019-02-28T19:40:14.155Z,76.07
2019-02-28T19:42:43.942Z,75.13
2019-02-28T19:45:14.228Z,71.50
2019-02-28T19:47:44.324Z,71.17
2019-02-28T19:50:14.028Z,75.60
2019-02-28T19:52:43.763Z,69.67
2019-02-28T19:55:13.905Z,70.85
2019-02-28T19:57:43.974Z,78.15
2019-02-28T20:00:15.496Z,68.53
2019-02-28T20:02:45.509Z,79.30
2019-02-28T20:05:15.334Z,69.50
2019-02-28T20:07:45.105Z,72.83
2019-02-28T20:10:16.146Z,78.50
2019-02-28T20:12:46.811Z,77.60
2019-02-28T20:15:17.050Z,72.42
2019-02-28T20:17:46.741Z,69.85
2019-02-28T20:20:17.700Z,74.05
2019-02-28T20:22:47.936Z,73.00
2019-02-28T20:25:17.740Z,68.10
2019-02-28T20:27:47.492Z,73.70
2019-02-28T20:30:17.565Z,74.60
2019-02-28T20:32:47.572Z,72.40
2019-02-28T20:35:26.248Z,66.17
2019-02-28T20:37:49.557Z,69.20
2019-02-28T20:40:19.305Z,62.83
2019-02-28T20:42:48.986Z,78.47
2019-02-28T20:45:18.803Z,69.12
2019-02-28T20:47:48.915Z,63.97
2019-02-28T20:50:27.907Z,65.43
2019-02-28T20:52:58.880Z,65.57
2019-02-28T20:55:28.852Z,63.98
2019-02-28T20:57:59.202Z,66.50
2019-02-28T21:00:28.890Z,70.80
2019-02-28T21:02:58.749Z,72.60
2019-02-28T21:05:28.857Z,78.90
2019-02-28T21:07:58.857Z,67.23
2019-02-28T21:10:28.825Z,74.07
2019-02-28T21:12:59.200Z,72.17
2019-02-28T21:15:29.098Z,72.37
2019-02-28T21:17:58.776Z,66.30
2019-02-28T21:20:28.612Z,69.42
2019-02-28T21:22:58.643Z,63.70
2019-02-28T21:25:28.503Z,67.60
2019-02-28T21:27:58.262Z,63.07
2019-02-28T21:30:28.255Z,70.90
2019-02-28T21:32:58.199Z,68.37
2019-02-28T21:35:28.233Z,68.53
2019-02-28T21:37:58.251Z,67.33
2019-02-28T21:40:28.167Z,71.90
2019-02-28T21:42:57.995Z,71.55
2019-02-28T21:45:27.852Z,74.23
2019-02-28T21:47:57.606Z,69.73
2019-02-28T21:50:27.331Z,74.43
2019-02-28T21:52:57.222Z,88.25
2019-02-28T21:55:27.253Z,81.40
2019-02-28T21:57:56.957Z,73.13
2019-02-28T22:00:26.884Z,79.77
2019-02-28T22:02:56.641Z,72.80
2019-02-28T22:05:26.394Z,77.90
2019-02-28T22:07:56.100Z,81.43
2019-02-28T22:10:25.799Z,80.12
2019-02-28T22:12:55.475Z,79.25
2019-02-28T22:15:25.403Z,84.97
2019-02-28T22:17:55.319Z,80.97
2019-02-28T22:20:24.971Z,84.77
2019-02-28T22:22:54.644Z,78.00
2019-02-28T22:25:24.303Z,76.57
2019-02-28T22:27:54.092Z,79.23
2019-02-28T22:30:42.879Z,83.83
2019-02-28T22:33:22.776Z,83.20
2019-02-28T22:35:55.059Z,78.87
2019-02-28T22:38:24.851Z,80.40
2019-02-28T22:40:54.526Z,89.93
2019-02-28T22:43:24.202Z,86.63
2019-02-28T22:45:53.953Z,87.70
2019-02-28T22:48:23.625Z,89.40
2019-02-28T22:50:53.418Z,89.57
2019-02-28T22:53:23.102Z,87.20
2019-02-28T22:55:52.971Z,87.10
2019-02-28T22:58:22.655Z,86.87
2019-02-28T23:01:20.471Z,89.83
2019-02-28T23:03:50.218Z,84.22
2019-02-28T23:06:20.783Z,75.67
2019-02-28T23:08:50.557Z,80.77
2019-02-28T23:11:20.223Z,90.77
2019-02-28T23:13:50.244Z,85.67
2019-02-28T23:16:19.911Z,83.43
2019-02-28T23:18:49.874Z,87.73
2019-02-28T23:21:19.558Z,81.27
2019-02-28T23:23:49.234Z,84.57
2019-02-28T23:26:24.952Z,79.30
2019-02-28T23:29:02.114Z,80.62
2019-02-28T23:32:09.134Z,84.35
2019-02-28T23:34:41.465Z,84.00
2019-02-28T23:37:11.479Z,86.00
2019-02-28T23:39:42.642Z,84.87
2019-02-28T23:42:13.044Z,93.40
2019-02-28T23:44:42.812Z,87.63
2019-02-28T23:47:12.953Z,105.45
2019-02-28T23:49:42.884Z,88.15
2019-02-28T23:52:12.544Z,86.12
2019-02-28T23:54:42.295Z,101.93
2019-02-28T23:57:11.966Z,115.10
2019-02-28T23:59:41.685Z,100.20
